sensor_id;sensor_type;location;lat;lon;timestamp;temperature;humidity
53695;DHT22;39588;51.124;7.190;2022-12-07T00:07:10;4.60;99.90
53695;DHT22;39588;51.124;7.190;2022-12-07T00:09:36;4.60;99.90
53695;DHT22;39588;51.124;7.190;2022-12-07T00:12:02;4.50;99.90
53695;DHT22;39588;51.124;7.190;2022-12-07T00:14:28;4.50;99.90
53695;DHT22;39588;51.124;7.190;2022-12-07T00:16:53;4.60;99.90
53695;DHT22;39588;51.124;7.190;2022-12-07T00:26:40;4.70;99.90
53695;DHT22;39588;51.124;7.190;2022-12-07T00:29:25;4.70;99.90
53695;DHT22;39588;51.124;7.190;2022-12-07T00:31:51;4.70;99.90
53695;DHT22;39588;51.124;7.190;2022-12-07T00:34:19;4.60;99.90
53695;DHT22;39588;51.124;7.190;2022-12-07T00:36:45;4.70;99.90
53695;DHT22;39588;51.124;7.190;2022-12-07T00:39:11;4.60;99.90
53695;DHT22;39588;51.124;7.190;2022-12-07T00:44:03;4.70;99.90
53695;DHT22;39588;51.124;7.190;2022-12-07T00:46:29;4.70;99.90
53695;DHT22;39588;51.124;7.190;2022-12-07T00:48:54;4.70;99.90
53695;DHT22;39588;51.124;7.190;2022-12-07T00:51:22;4.70;99.90
53695;DHT22;39588;51.124;7.190;2022-12-07T00:53:48;4.70;99.90
53695;DHT22;39588;51.124;7.190;2022-12-07T00:56:23;4.70;99.90
53695;DHT22;39588;51.124;7.190;2022-12-07T00:59:00;4.70;99.90
53695;DHT22;39588;51.124;7.190;2022-12-07T01:01:29;4.70;99.90
53695;DHT22;39588;51.124;7.190;2022-12-07T01:06:22;4.70;99.90
53695;DHT22;39588;51.124;7.190;2022-12-07T01:11:17;4.70;99.90
53695;DHT22;39588;51.124;7.190;2022-12-07T01:13:44;4.70;99.90
53695;DHT22;39588;51.124;7.190;2022-12-07T01:16:12;4.70;99.90
53695;DHT22;39588;51.124;7.190;2022-12-07T01:18:39;4.70;99.90
53695;DHT22;39588;51.124;7.190;2022-12-07T01:21:13;4.60;99.90
53695;DHT22;39588;51.124;7.190;2022-12-07T01:23:39;4.60;99.90
53695;DHT22;39588;51.124;7.190;2022-12-07T01:26:09;4.60;99.90
53695;DHT22;39588;51.124;7.190;2022-12-07T01:28:35;4.60;99.90
53695;DHT22;39588;51.124;7.190;2022-12-07T01:33:34;4.70;99.90
53695;DHT22;39588;51.124;7.190;2022-12-07T01:43:32;4.60;99.90
53695;DHT22;39588;51.124;7.190;2022-12-07T01:45:58;4.60;99.90
53695;DHT22;39588;51.124;7.190;2022-12-07T01:48:38;4.60;99.90
53695;DHT22;39588;51.124;7.190;2022-12-07T01:51:10;4.70;99.90
53695;DHT22;39588;51.124;7.190;2022-12-07T01:53:41;4.70;99.90
53695;DHT22;39588;51.124;7.190;2022-12-07T01:56:08;4.70;99.90
53695;DHT22;39588;51.124;7.190;2022-12-07T01:58:36;4.70;99.90
53695;DHT22;39588;51.124;7.190;2022-12-07T02:01:02;4.70;99.90
53695;DHT22;39588;51.124;7.190;2022-12-07T02:03:38;4.70;99.90
53695;DHT22;39588;51.124;7.190;2022-12-07T02:06:05;4.70;99.90
53695;DHT22;39588;51.124;7.190;2022-12-07T02:08:33;4.60;99.90
53695;DHT22;39588;51.124;7.190;2022-12-07T02:10:59;4.60;99.90
53695;DHT22;39588;51.124;7.190;2022-12-07T02:13:27;4.70;99.90
53695;DHT22;39588;51.124;7.190;2022-12-07T02:32:16;4.70;99.90
53695;DHT22;39588;51.124;7.190;2022-12-07T02:34:49;4.70;99.90
53695;DHT22;39588;51.124;7.190;2022-12-07T02:37:39;4.60;99.90
53695;DHT22;39588;51.124;7.190;2022-12-07T02:40:25;4.60;99.90
53695;DHT22;39588;51.124;7.190;2022-12-07T02:43:02;4.70;99.90
53695;DHT22;39588;51.124;7.190;2022-12-07T02:45:31;4.70;99.90
53695;DHT22;39588;51.124;7.190;2022-12-07T02:47:58;4.70;99.90
53695;DHT22;39588;51.124;7.190;2022-12-07T02:50:25;4.70;99.90
53695;DHT22;39588;51.124;7.190;2022-12-07T02:52:51;4.60;99.90
53695;DHT22;39588;51.124;7.190;2022-12-07T02:55:19;4.70;99.90
53695;DHT22;39588;51.124;7.190;2022-12-07T02:58:03;4.60;99.90
53695;DHT22;39588;51.124;7.190;2022-12-07T03:00:46;4.60;99.90
53695;DHT22;39588;51.124;7.190;2022-12-07T03:03:15;4.60;99.90
53695;DHT22;39588;51.124;7.190;2022-12-07T03:06:10;4.60;99.90
53695;DHT22;39588;51.124;7.190;2022-12-07T03:08:51;4.60;99.90
53695;DHT22;39588;51.124;7.190;2022-12-07T03:11:32;4.60;99.90
53695;DHT22;39588;51.124;7.190;2022-12-07T03:14:06;4.60;99.90
53695;DHT22;39588;51.124;7.190;2022-12-07T03:16:37;4.60;99.90
53695;DHT22;39588;51.124;7.190;2022-12-07T03:19:15;4.60;99.90
53695;DHT22;39588;51.124;7.190;2022-12-07T03:21:46;4.60;99.90
53695;DHT22;39588;51.124;7.190;2022-12-07T03:24:18;4.60;99.90
53695;DHT22;39588;51.124;7.190;2022-12-07T03:26:49;4.60;99.90
53695;DHT22;39588;51.124;7.190;2022-12-07T03:29:26;4.50;99.90
53695;DHT22;39588;51.124;7.190;2022-12-07T03:35:01;4.60;99.90
53695;DHT22;39588;51.124;7.190;2022-12-07T03:37:35;4.60;99.90
53695;DHT22;39588;51.124;7.190;2022-12-07T03:45:15;4.60;99.90
53695;DHT22;39588;51.124;7.190;2022-12-07T03:50:15;4.50;99.90
53695;DHT22;39588;51.124;7.190;2022-12-07T03:52:59;4.50;99.90
53695;DHT22;39588;51.124;7.190;2022-12-07T03:55:32;4.50;99.90
53695;DHT22;39588;51.124;7.190;2022-12-07T03:58:07;4.40;99.90
53695;DHT22;39588;51.124;7.190;2022-12-07T04:00:36;4.40;99.90
53695;DHT22;39588;51.124;7.190;2022-12-07T04:03:01;4.40;99.90
53695;DHT22;39588;51.124;7.190;2022-12-07T04:05:27;4.40;99.90
53695;DHT22;39588;51.124;7.190;2022-12-07T04:07:53;4.30;99.90
53695;DHT22;39588;51.124;7.190;2022-12-07T04:15:11;4.40;99.90
53695;DHT22;39588;51.124;7.190;2022-12-07T04:17:37;4.40;99.90
53695;DHT22;39588;51.124;7.190;2022-12-07T04:20:04;4.40;99.90
53695;DHT22;39588;51.124;7.190;2022-12-07T04:22:30;4.40;99.90
53695;DHT22;39588;51.124;7.190;2022-12-07T04:24:56;4.40;99.90
53695;DHT22;39588;51.124;7.190;2022-12-07T04:34:39;4.40;99.90
53695;DHT22;39588;51.124;7.190;2022-12-07T04:37:05;4.40;99.90
53695;DHT22;39588;51.124;7.190;2022-12-07T04:39:32;4.40;99.90
53695;DHT22;39588;51.124;7.190;2022-12-07T04:41:59;4.40;99.90
53695;DHT22;39588;51.124;7.190;2022-12-07T04:44:26;4.40;99.90
53695;DHT22;39588;51.124;7.190;2022-12-07T04:46:51;4.40;99.90
53695;DHT22;39588;51.124;7.190;2022-12-07T04:49:18;4.40;99.90
53695;DHT22;39588;51.124;7.190;2022-12-07T04:51:44;4.40;99.90
53695;DHT22;39588;51.124;7.190;2022-12-07T04:54:11;4.40;99.90
53695;DHT22;39588;51.124;7.190;2022-12-07T04:56:38;4.40;99.90
53695;DHT22;39588;51.124;7.190;2022-12-07T04:59:04;4.40;99.90
53695;DHT22;39588;51.124;7.190;2022-12-07T05:01:30;4.40;99.90
53695;DHT22;39588;51.124;7.190;2022-12-07T05:03:56;4.40;99.90
53695;DHT22;39588;51.124;7.190;2022-12-07T05:06:21;4.40;99.90
53695;DHT22;39588;51.124;7.190;2022-12-07T05:08:47;4.50;99.90
53695;DHT22;39588;51.124;7.190;2022-12-07T05:11:13;4.40;99.90
53695;DHT22;39588;51.124;7.190;2022-12-07T05:14:00;4.40;99.90
53695;DHT22;39588;51.124;7.190;2022-12-07T05:16:26;4.30;99.90
53695;DHT22;39588;51.124;7.190;2022-12-07T05:18:52;4.20;99.90
53695;DHT22;39588;51.124;7.190;2022-12-07T05:21:18;4.20;99.90
53695;DHT22;39588;51.124;7.190;2022-12-07T05:31:01;4.20;99.90
53695;DHT22;39588;51.124;7.190;2022-12-07T05:33:27;4.10;99.90
53695;DHT22;39588;51.124;7.190;2022-12-07T05:35:52;4.20;99.90
53695;DHT22;39588;51.124;7.190;2022-12-07T05:57:46;4.30;99.90
53695;DHT22;39588;51.124;7.190;2022-12-07T06:00:30;4.40;99.90
53695;DHT22;39588;51.124;7.190;2022-12-07T06:02:56;4.40;99.90
53695;DHT22;39588;51.124;7.190;2022-12-07T06:05:22;4.40;99.90
53695;DHT22;39588;51.124;7.190;2022-12-07T06:07:47;4.40;99.90
53695;DHT22;39588;51.124;7.190;2022-12-07T06:15:08;4.30;99.90
53695;DHT22;39588;51.124;7.190;2022-12-07T06:17:34;4.30;99.90
53695;DHT22;39588;51.124;7.190;2022-12-07T06:20:00;4.30;99.90
53695;DHT22;39588;51.124;7.190;2022-12-07T06:32:09;4.30;99.90
53695;DHT22;39588;51.124;7.190;2022-12-07T06:34:35;4.30;99.90
53695;DHT22;39588;51.124;7.190;2022-12-07T06:37:01;4.30;99.90
53695;DHT22;39588;51.124;7.190;2022-12-07T06:39:28;4.30;99.90
53695;DHT22;39588;51.124;7.190;2022-12-07T06:41:54;4.30;99.90
53695;DHT22;39588;51.124;7.190;2022-12-07T06:44:20;4.30;99.90
53695;DHT22;39588;51.124;7.190;2022-12-07T06:46:46;4.30;99.90
53695;DHT22;39588;51.124;7.190;2022-12-07T06:49:12;4.30;99.90
53695;DHT22;39588;51.124;7.190;2022-12-07T06:51:37;4.30;99.90
53695;DHT22;39588;51.124;7.190;2022-12-07T06:54:10;4.20;99.90
53695;DHT22;39588;51.124;7.190;2022-12-07T06:59:03;4.10;99.90
53695;DHT22;39588;51.124;7.190;2022-12-07T07:03:56;4.20;99.90
53695;DHT22;39588;51.124;7.190;2022-12-07T07:06:22;4.20;99.90
53695;DHT22;39588;51.124;7.190;2022-12-07T07:08:48;4.20;99.90
53695;DHT22;39588;51.124;7.190;2022-12-07T07:11:13;4.20;99.90
53695;DHT22;39588;51.124;7.190;2022-12-07T07:16:06;4.10;99.90
53695;DHT22;39588;51.124;7.190;2022-12-07T07:18:32;4.00;99.90
53695;DHT22;39588;51.124;7.190;2022-12-07T07:28:16;4.00;99.90
53695;DHT22;39588;51.124;7.190;2022-12-07T07:33:09;4.00;99.90
53695;DHT22;39588;51.124;7.190;2022-12-07T07:35:35;4.10;99.90
53695;DHT22;39588;51.124;7.190;2022-12-07T07:38:01;4.10;99.90
53695;DHT22;39588;51.124;7.190;2022-12-07T07:40:27;4.20;99.90
53695;DHT22;39588;51.124;7.190;2022-12-07T07:45:24;4.20;99.90
53695;DHT22;39588;51.124;7.190;2022-12-07T07:47:50;4.30;99.90
53695;DHT22;39588;51.124;7.190;2022-12-07T07:50:17;4.30;99.90
53695;DHT22;39588;51.124;7.190;2022-12-07T07:52:43;4.30;99.90
53695;DHT22;39588;51.124;7.190;2022-12-07T07:55:09;4.20;99.90
53695;DHT22;39588;51.124;7.190;2022-12-07T07:57:36;4.20;99.90
53695;DHT22;39588;51.124;7.190;2022-12-07T08:00:07;4.30;99.90
53695;DHT22;39588;51.124;7.190;2022-12-07T08:12:17;4.30;99.90
53695;DHT22;39588;51.124;7.190;2022-12-07T08:17:09;4.30;99.90
53695;DHT22;39588;51.124;7.190;2022-12-07T08:19:34;4.30;99.90
53695;DHT22;39588;51.124;7.190;2022-12-07T08:22:00;4.30;99.90
53695;DHT22;39588;51.124;7.190;2022-12-07T08:24:26;4.40;99.90
53695;DHT22;39588;51.124;7.190;2022-12-07T08:26:52;4.40;99.90
53695;DHT22;39588;51.124;7.190;2022-12-07T08:34:10;4.40;99.90
53695;DHT22;39588;51.124;7.190;2022-12-07T08:36:36;4.40;99.90
53695;DHT22;39588;51.124;7.190;2022-12-07T08:39:02;4.40;99.90
53695;DHT22;39588;51.124;7.190;2022-12-07T08:41:28;4.40;99.90
53695;DHT22;39588;51.124;7.190;2022-12-07T08:49:20;4.70;99.90
53695;DHT22;39588;51.124;7.190;2022-12-07T08:51:47;4.70;99.90
53695;DHT22;39588;51.124;7.190;2022-12-07T08:54:15;4.60;99.90
53695;DHT22;39588;51.124;7.190;2022-12-07T08:56:42;4.60;99.90
53695;DHT22;39588;51.124;7.190;2022-12-07T08:59:08;4.60;99.90
53695;DHT22;39588;51.124;7.190;2022-12-07T09:01:34;4.70;99.90
53695;DHT22;39588;51.124;7.190;2022-12-07T09:03:59;4.80;99.90
53695;DHT22;39588;51.124;7.190;2022-12-07T09:06:25;4.80;99.90
53695;DHT22;39588;51.124;7.190;2022-12-07T09:08:54;4.90;99.90
53695;DHT22;39588;51.124;7.190;2022-12-07T09:11:21;4.90;99.90
53695;DHT22;39588;51.124;7.190;2022-12-07T09:26:01;5.10;99.90
53695;DHT22;39588;51.124;7.190;2022-12-07T09:28:27;5.10;99.90
53695;DHT22;39588;51.124;7.190;2022-12-07T09:30:53;5.10;99.90
53695;DHT22;39588;51.124;7.190;2022-12-07T09:33:18;5.00;99.90
53695;DHT22;39588;51.124;7.190;2022-12-07T09:35:48;5.00;99.90
53695;DHT22;39588;51.124;7.190;2022-12-07T09:38:14;5.00;99.90
53695;DHT22;39588;51.124;7.190;2022-12-07T09:40:41;5.00;99.90
53695;DHT22;39588;51.124;7.190;2022-12-07T09:43:18;5.10;99.90
53695;DHT22;39588;51.124;7.190;2022-12-07T09:45:46;5.10;99.90
53695;DHT22;39588;51.124;7.190;2022-12-07T09:48:25;4.90;99.90
53695;DHT22;39588;51.124;7.190;2022-12-07T09:50:54;4.90;99.90
53695;DHT22;39588;51.124;7.190;2022-12-07T09:53:30;5.00;99.90
53695;DHT22;39588;51.124;7.190;2022-12-07T09:55:59;5.10;99.90
53695;DHT22;39588;51.124;7.190;2022-12-07T09:58:27;5.10;99.90
53695;DHT22;39588;51.124;7.190;2022-12-07T10:00:56;5.20;99.90
53695;DHT22;39588;51.124;7.190;2022-12-07T10:05:50;4.90;99.90
53695;DHT22;39588;51.124;7.190;2022-12-07T10:08:16;4.90;99.90
53695;DHT22;39588;51.124;7.190;2022-12-07T10:10:44;4.90;99.90
53695;DHT22;39588;51.124;7.190;2022-12-07T10:13:13;4.90;99.90
53695;DHT22;39588;51.124;7.190;2022-12-07T10:15:56;5.00;99.90
53695;DHT22;39588;51.124;7.190;2022-12-07T10:18:39;5.10;99.90
53695;DHT22;39588;51.124;7.190;2022-12-07T10:23:59;5.30;99.90
53695;DHT22;39588;51.124;7.190;2022-12-07T10:28:59;5.20;99.90
53695;DHT22;39588;51.124;7.190;2022-12-07T10:31:26;5.30;99.90
53695;DHT22;39588;51.124;7.190;2022-12-07T10:33:59;5.40;99.90
53695;DHT22;39588;51.124;7.190;2022-12-07T10:36:37;5.40;99.90
53695;DHT22;39588;51.124;7.190;2022-12-07T10:39:11;5.30;99.90
53695;DHT22;39588;51.124;7.190;2022-12-07T10:41:57;5.20;99.90
53695;DHT22;39588;51.124;7.190;2022-12-07T10:44:34;5.10;99.90
53695;DHT22;39588;51.124;7.190;2022-12-07T10:47:33;5.20;99.90
53695;DHT22;39588;51.124;7.190;2022-12-07T10:53:04;5.10;99.90
53695;DHT22;39588;51.124;7.190;2022-12-07T10:58:40;5.20;99.90
53695;DHT22;39588;51.124;7.190;2022-12-07T11:06:56;5.40;99.90
53695;DHT22;39588;51.124;7.190;2022-12-07T11:11:59;5.30;99.90
53695;DHT22;39588;51.124;7.190;2022-12-07T11:17:45;5.30;99.90
53695;DHT22;39588;51.124;7.190;2022-12-07T11:20:43;5.30;99.90
53695;DHT22;39588;51.124;7.190;2022-12-07T11:34:34;5.50;99.90
53695;DHT22;39588;51.124;7.190;2022-12-07T11:36:56;5.70;99.90
53695;DHT22;39588;51.124;7.190;2022-12-07T11:41:52;5.80;99.90
53695;DHT22;39588;51.124;7.190;2022-12-07T11:49:51;5.70;99.90
53695;DHT22;39588;51.124;7.190;2022-12-07T11:52:24;5.70;99.90
53695;DHT22;39588;51.124;7.190;2022-12-07T11:54:52;5.80;99.90
53695;DHT22;39588;51.124;7.190;2022-12-07T11:57:33;6.00;99.90
53695;DHT22;39588;51.124;7.190;2022-12-07T12:00:05;6.10;99.90
53695;DHT22;39588;51.124;7.190;2022-12-07T12:02:45;6.20;99.90
53695;DHT22;39588;51.124;7.190;2022-12-07T12:07:40;6.50;99.90
53695;DHT22;39588;51.124;7.190;2022-12-07T12:10:33;6.60;99.90
53695;DHT22;39588;51.124;7.190;2022-12-07T12:16:15;6.80;99.80
53695;DHT22;39588;51.124;7.190;2022-12-07T12:18:56;6.60;99.80
53695;DHT22;39588;51.124;7.190;2022-12-07T12:21:28;6.40;99.90
53695;DHT22;39588;51.124;7.190;2022-12-07T12:24:02;6.20;99.90
53695;DHT22;39588;51.124;7.190;2022-12-07T12:26:33;5.90;99.90
53695;DHT22;39588;51.124;7.190;2022-12-07T12:29:13;5.80;99.90
53695;DHT22;39588;51.124;7.190;2022-12-07T12:31:48;5.70;99.90
53695;DHT22;39588;51.124;7.190;2022-12-07T12:42:47;5.80;99.90
53695;DHT22;39588;51.124;7.190;2022-12-07T12:45:32;5.80;99.90
53695;DHT22;39588;51.124;7.190;2022-12-07T12:48:00;5.80;99.90
53695;DHT22;39588;51.124;7.190;2022-12-07T12:50:30;5.80;99.90
53695;DHT22;39588;51.124;7.190;2022-12-07T12:58:32;5.60;99.90
53695;DHT22;39588;51.124;7.190;2022-12-07T13:04:49;5.70;99.90
53695;DHT22;39588;51.124;7.190;2022-12-07T13:07:49;5.60;99.90
53695;DHT22;39588;51.124;7.190;2022-12-07T13:28:40;5.80;99.90
53695;DHT22;39588;51.124;7.190;2022-12-07T13:34:00;5.90;99.90
53695;DHT22;39588;51.124;7.190;2022-12-07T13:36:38;5.80;99.90
53695;DHT22;39588;51.124;7.190;2022-12-07T13:41:42;5.70;99.90
53695;DHT22;39588;51.124;7.190;2022-12-07T13:44:13;5.60;99.90
53695;DHT22;39588;51.124;7.190;2022-12-07T13:49:31;5.60;99.90
53695;DHT22;39588;51.124;7.190;2022-12-07T13:52:16;5.70;99.90
53695;DHT22;39588;51.124;7.190;2022-12-07T13:55:13;5.60;99.90
53695;DHT22;39588;51.124;7.190;2022-12-07T13:57:39;5.60;99.90
53695;DHT22;39588;51.124;7.190;2022-12-07T14:00:15;5.60;99.90
53695;DHT22;39588;51.124;7.190;2022-12-07T14:03:02;5.60;99.90
53695;DHT22;39588;51.124;7.190;2022-12-07T14:05:30;5.60;99.90
53695;DHT22;39588;51.124;7.190;2022-12-07T14:07:57;5.60;99.90
53695;DHT22;39588;51.124;7.190;2022-12-07T14:10:33;5.60;99.90
53695;DHT22;39588;51.124;7.190;2022-12-07T14:13:00;5.60;99.90
53695;DHT22;39588;51.124;7.190;2022-12-07T14:15:33;5.60;99.90
53695;DHT22;39588;51.124;7.190;2022-12-07T14:18:01;5.60;99.90
53695;DHT22;39588;51.124;7.190;2022-12-07T14:20:38;5.60;99.90
53695;DHT22;39588;51.124;7.190;2022-12-07T14:23:05;5.60;99.90
53695;DHT22;39588;51.124;7.190;2022-12-07T14:25:48;5.60;99.90
53695;DHT22;39588;51.124;7.190;2022-12-07T14:28:28;5.60;99.90
53695;DHT22;39588;51.124;7.190;2022-12-07T14:30:54;5.50;99.90
53695;DHT22;39588;51.124;7.190;2022-12-07T14:33:21;5.50;99.90
53695;DHT22;39588;51.124;7.190;2022-12-07T14:35:47;5.50;99.90
53695;DHT22;39588;51.124;7.190;2022-12-07T14:38:12;5.50;99.90
53695;DHT22;39588;51.124;7.190;2022-12-07T14:40:38;5.50;99.90
53695;DHT22;39588;51.124;7.190;2022-12-07T14:43:09;5.50;99.90
53695;DHT22;39588;51.124;7.190;2022-12-07T14:45:35;5.50;99.90
53695;DHT22;39588;51.124;7.190;2022-12-07T14:48:01;5.50;99.90
53695;DHT22;39588;51.124;7.190;2022-12-07T14:50:26;5.40;99.90
53695;DHT22;39588;51.124;7.190;2022-12-07T14:52:56;5.40;99.90
53695;DHT22;39588;51.124;7.190;2022-12-07T14:55:29;5.40;99.90
53695;DHT22;39588;51.124;7.190;2022-12-07T14:57:56;5.40;99.90
53695;DHT22;39588;51.124;7.190;2022-12-07T15:00:24;5.40;99.90
53695;DHT22;39588;51.124;7.190;2022-12-07T15:02:51;5.30;99.90
53695;DHT22;39588;51.124;7.190;2022-12-07T15:07:43;5.30;99.90
53695;DHT22;39588;51.124;7.190;2022-12-07T15:12:44;5.30;99.90
53695;DHT22;39588;51.124;7.190;2022-12-07T15:15:10;5.30;99.90
53695;DHT22;39588;51.124;7.190;2022-12-07T15:17:35;5.20;99.90
53695;DHT22;39588;51.124;7.190;2022-12-07T15:24:55;5.20;99.90
53695;DHT22;39588;51.124;7.190;2022-12-07T15:27:20;5.10;99.90
53695;DHT22;39588;51.124;7.190;2022-12-07T15:29:46;5.10;99.90
53695;DHT22;39588;51.124;7.190;2022-12-07T15:32:12;5.10;99.90
53695;DHT22;39588;51.124;7.190;2022-12-07T15:34:37;5.00;99.90
53695;DHT22;39588;51.124;7.190;2022-12-07T15:37:03;5.00;99.90
53695;DHT22;39588;51.124;7.190;2022-12-07T15:42:32;5.00;99.90
53695;DHT22;39588;51.124;7.190;2022-12-07T15:47:38;5.00;99.90
53695;DHT22;39588;51.124;7.190;2022-12-07T15:50:07;4.90;99.90
53695;DHT22;39588;51.124;7.190;2022-12-07T15:52:33;4.90;99.90
53695;DHT22;39588;51.124;7.190;2022-12-07T15:54:59;5.00;99.90
53695;DHT22;39588;51.124;7.190;2022-12-07T15:57:26;5.00;99.90
53695;DHT22;39588;51.124;7.190;2022-12-07T15:59:52;5.00;99.90
53695;DHT22;39588;51.124;7.190;2022-12-07T16:07:11;5.20;99.90
53695;DHT22;39588;51.124;7.190;2022-12-07T16:09:37;5.20;99.90
53695;DHT22;39588;51.124;7.190;2022-12-07T16:12:03;5.20;99.90
53695;DHT22;39588;51.124;7.190;2022-12-07T16:14:29;5.20;99.90
53695;DHT22;39588;51.124;7.190;2022-12-07T16:16:57;5.20;99.90
53695;DHT22;39588;51.124;7.190;2022-12-07T16:29:11;5.30;99.90
53695;DHT22;39588;51.124;7.190;2022-12-07T16:41:22;5.20;99.90
53695;DHT22;39588;51.124;7.190;2022-12-07T16:43:48;5.20;99.90
53695;DHT22;39588;51.124;7.190;2022-12-07T16:46:14;5.20;99.90
53695;DHT22;39588;51.124;7.190;2022-12-07T16:48:41;5.20;99.90
53695;DHT22;39588;51.124;7.190;2022-12-07T16:51:09;5.10;99.90
53695;DHT22;39588;51.124;7.190;2022-12-07T16:53:35;5.10;99.90
53695;DHT22;39588;51.124;7.190;2022-12-07T16:56:01;5.10;99.90
53695;DHT22;39588;51.124;7.190;2022-12-07T16:58:27;5.10;99.90
53695;DHT22;39588;51.124;7.190;2022-12-07T17:00:53;5.10;99.90
53695;DHT22;39588;51.124;7.190;2022-12-07T17:03:18;5.00;99.90
53695;DHT22;39588;51.124;7.190;2022-12-07T17:05:45;5.00;99.90
53695;DHT22;39588;51.124;7.190;2022-12-07T17:08:12;5.00;99.90
53695;DHT22;39588;51.124;7.190;2022-12-07T17:10:40;5.00;99.90
53695;DHT22;39588;51.124;7.190;2022-12-07T17:13:07;5.00;99.90
53695;DHT22;39588;51.124;7.190;2022-12-07T17:16:09;5.00;99.90
53695;DHT22;39588;51.124;7.190;2022-12-07T17:18:35;4.90;99.90
53695;DHT22;39588;51.124;7.190;2022-12-07T17:21:07;4.90;99.90
53695;DHT22;39588;51.124;7.190;2022-12-07T17:23:34;4.90;99.90
53695;DHT22;39588;51.124;7.190;2022-12-07T17:26:11;4.90;99.90
53695;DHT22;39588;51.124;7.190;2022-12-07T17:28:38;4.80;99.90
53695;DHT22;39588;51.124;7.190;2022-12-07T17:31:05;4.80;99.90
53695;DHT22;39588;51.124;7.190;2022-12-07T17:33:32;4.80;99.90
53695;DHT22;39588;51.124;7.190;2022-12-07T17:35:58;4.80;99.90
53695;DHT22;39588;51.124;7.190;2022-12-07T17:38:24;4.70;99.90
53695;DHT22;39588;51.124;7.190;2022-12-07T17:40:50;4.70;99.90
53695;DHT22;39588;51.124;7.190;2022-12-07T17:45:41;4.80;99.90
53695;DHT22;39588;51.124;7.190;2022-12-07T17:48:07;4.70;99.90
53695;DHT22;39588;51.124;7.190;2022-12-07T17:50:32;4.70;99.90
53695;DHT22;39588;51.124;7.190;2022-12-07T17:53:17;4.70;99.90
53695;DHT22;39588;51.124;7.190;2022-12-07T17:58:08;4.70;99.90
53695;DHT22;39588;51.124;7.190;2022-12-07T18:00:34;4.80;99.90
53695;DHT22;39588;51.124;7.190;2022-12-07T18:03:06;4.80;99.90
53695;DHT22;39588;51.124;7.190;2022-12-07T18:05:36;4.90;99.90
53695;DHT22;39588;51.124;7.190;2022-12-07T18:18:06;4.80;99.90
53695;DHT22;39588;51.124;7.190;2022-12-07T18:20:32;4.80;99.90
53695;DHT22;39588;51.124;7.190;2022-12-07T18:22:58;4.80;99.90
53695;DHT22;39588;51.124;7.190;2022-12-07T18:25:23;4.80;99.90
53695;DHT22;39588;51.124;7.190;2022-12-07T18:27:49;4.80;99.90
53695;DHT22;39588;51.124;7.190;2022-12-07T18:30:14;4.90;99.90
53695;DHT22;39588;51.124;7.190;2022-12-07T18:32:41;4.90;99.90
53695;DHT22;39588;51.124;7.190;2022-12-07T18:35:07;4.90;99.90
53695;DHT22;39588;51.124;7.190;2022-12-07T18:37:32;4.90;99.90
53695;DHT22;39588;51.124;7.190;2022-12-07T18:39:58;4.90;99.90
53695;DHT22;39588;51.124;7.190;2022-12-07T18:42:24;4.90;99.90
53695;DHT22;39588;51.124;7.190;2022-12-07T18:54:34;4.70;99.90
53695;DHT22;39588;51.124;7.190;2022-12-07T18:56:59;4.70;99.90
53695;DHT22;39588;51.124;7.190;2022-12-07T18:59:25;4.80;99.90
53695;DHT22;39588;51.124;7.190;2022-12-07T19:02:09;4.80;99.90
53695;DHT22;39588;51.124;7.190;2022-12-07T19:04:36;4.80;99.90
53695;DHT22;39588;51.124;7.190;2022-12-07T19:07:01;4.80;99.90
53695;DHT22;39588;51.124;7.190;2022-12-07T19:09:27;4.70;99.90
53695;DHT22;39588;51.124;7.190;2022-12-07T19:14:54;4.70;99.90
53695;DHT22;39588;51.124;7.190;2022-12-07T19:17:12;4.70;99.90
53695;DHT22;39588;51.124;7.190;2022-12-07T19:19:47;4.70;99.90
53695;DHT22;39588;51.124;7.190;2022-12-07T19:22:18;4.70;99.90
53695;DHT22;39588;51.124;7.190;2022-12-07T19:24:47;4.70;99.90
53695;DHT22;39588;51.124;7.190;2022-12-07T19:27:13;4.70;99.90
53695;DHT22;39588;51.124;7.190;2022-12-07T19:29:40;4.70;99.90
53695;DHT22;39588;51.124;7.190;2022-12-07T19:32:07;4.70;99.90
53695;DHT22;39588;51.124;7.190;2022-12-07T19:34:37;4.70;99.90
53695;DHT22;39588;51.124;7.190;2022-12-07T19:37:04;4.70;99.90
53695;DHT22;39588;51.124;7.190;2022-12-07T19:41:56;4.60;99.90
53695;DHT22;39588;51.124;7.190;2022-12-07T19:44:24;4.60;99.90
53695;DHT22;39588;51.124;7.190;2022-12-07T19:46:51;4.60;99.90
53695;DHT22;39588;51.124;7.190;2022-12-07T19:49:22;4.60;99.90
53695;DHT22;39588;51.124;7.190;2022-12-07T19:51:51;4.60;99.90
53695;DHT22;39588;51.124;7.190;2022-12-07T19:54:19;4.50;99.90
53695;DHT22;39588;51.124;7.190;2022-12-07T19:56:46;4.50;99.90
53695;DHT22;39588;51.124;7.190;2022-12-07T19:59:12;4.50;99.90
53695;DHT22;39588;51.124;7.190;2022-12-07T20:01:39;4.50;99.90
53695;DHT22;39588;51.124;7.190;2022-12-07T20:04:28;4.50;99.90
53695;DHT22;39588;51.124;7.190;2022-12-07T20:06:55;4.40;99.90
53695;DHT22;39588;51.124;7.190;2022-12-07T20:09:22;4.40;99.90
53695;DHT22;39588;51.124;7.190;2022-12-07T20:11:48;4.50;99.90
53695;DHT22;39588;51.124;7.190;2022-12-07T20:14:32;4.50;99.90
53695;DHT22;39588;51.124;7.190;2022-12-07T20:16:58;4.50;99.90
53695;DHT22;39588;51.124;7.190;2022-12-07T20:19:24;4.60;99.90
53695;DHT22;39588;51.124;7.190;2022-12-07T20:24:23;4.50;99.90
53695;DHT22;39588;51.124;7.190;2022-12-07T20:26:50;4.50;99.90
53695;DHT22;39588;51.124;7.190;2022-12-07T20:29:19;4.50;99.90
53695;DHT22;39588;51.124;7.190;2022-12-07T20:31:46;4.50;99.90
53695;DHT22;39588;51.124;7.190;2022-12-07T20:34:13;4.50;99.90
53695;DHT22;39588;51.124;7.190;2022-12-07T20:44:17;4.40;99.90
53695;DHT22;39588;51.124;7.190;2022-12-07T20:46:44;4.50;99.90
53695;DHT22;39588;51.124;7.190;2022-12-07T20:49:11;4.40;99.90
53695;DHT22;39588;51.124;7.190;2022-12-07T20:51:39;4.50;99.90
53695;DHT22;39588;51.124;7.190;2022-12-07T20:54:05;4.40;99.90
53695;DHT22;39588;51.124;7.190;2022-12-07T20:56:31;4.40;99.90
53695;DHT22;39588;51.124;7.190;2022-12-07T20:59:00;4.40;99.90
53695;DHT22;39588;51.124;7.190;2022-12-07T21:03:57;4.40;99.90
53695;DHT22;39588;51.124;7.190;2022-12-07T21:06:23;4.50;99.90
53695;DHT22;39588;51.124;7.190;2022-12-07T21:08:51;4.50;99.90
53695;DHT22;39588;51.124;7.190;2022-12-07T21:11:18;4.50;99.90
53695;DHT22;39588;51.124;7.190;2022-12-07T21:16:13;4.60;99.90
53695;DHT22;39588;51.124;7.190;2022-12-07T21:21:07;4.60;99.90
53695;DHT22;39588;51.124;7.190;2022-12-07T21:23:33;4.60;99.90
53695;DHT22;39588;51.124;7.190;2022-12-07T21:25:59;4.60;99.90
53695;DHT22;39588;51.124;7.190;2022-12-07T21:30:57;4.50;99.90
53695;DHT22;39588;51.124;7.190;2022-12-07T21:35:49;4.60;99.90
53695;DHT22;39588;51.124;7.190;2022-12-07T21:40:41;4.50;99.90
53695;DHT22;39588;51.124;7.190;2022-12-07T21:43:07;4.50;99.90
53695;DHT22;39588;51.124;7.190;2022-12-07T21:45:32;4.50;99.90
53695;DHT22;39588;51.124;7.190;2022-12-07T21:47:58;4.60;99.90
53695;DHT22;39588;51.124;7.190;2022-12-07T21:50:24;4.60;99.90
53695;DHT22;39588;51.124;7.190;2022-12-07T22:09:52;4.50;99.90